sensor_id;sensor_type;location;lat;lon;timestamp;pressure;altitude;pressure_sealevel;temperature;humidity
72330;BME280;69154;52.076;5.110;2023-04-27T00:00:40;102199.54;;;6.69;27.70
72330;BME280;69154;52.076;5.110;2023-04-27T00:03:05;102201.90;;;6.26;27.11
72330;BME280;69154;52.076;5.110;2023-04-27T00:05:33;102202.81;;;7.31;26.50
72330;BME280;69154;52.076;5.110;2023-04-27T00:07:56;102202.15;;;6.48;27.11
72330;BME280;69154;52.076;5.110;2023-04-27T00:10:22;102204.03;;;5.85;27.58
72330;BME280;69154;52.076;5.110;2023-04-27T00:12:48;102206.59;;;4.22;29.37
72330;BME280;69154;52.076;5.110;2023-04-27T00:15:18;102206.36;;;3.27;29.95
72330;BME280;69154;52.076;5.110;2023-04-27T00:17:39;102203.90;;;4.10;30.17
72330;BME280;69154;52.076;5.110;2023-04-27T00:20:06;102199.92;;;3.61;30.05
72330;BME280;69154;52.076;5.110;2023-04-27T00:22:30;102199.05;;;4.73;29.35
72330;BME280;69154;52.076;5.110;2023-04-27T00:24:56;102197.35;;;4.73;29.14
72330;BME280;69154;52.076;5.110;2023-04-27T00:27:26;102192.08;;;6.10;28.52
72330;BME280;69154;52.076;5.110;2023-04-27T00:29:47;102190.22;;;5.87;28.47
72330;BME280;69154;52.076;5.110;2023-04-27T00:32:12;102192.07;;;5.45;28.46
72330;BME280;69154;52.076;5.110;2023-04-27T00:34:38;102188.59;;;5.91;28.45
72330;BME280;69154;52.076;5.110;2023-04-27T00:37:03;102190.93;;;5.85;27.91
72330;BME280;69154;52.076;5.110;2023-04-27T00:39:29;102196.39;;;7.00;26.98
72330;BME280;69154;52.076;5.110;2023-04-27T00:41:54;102195.98;;;7.44;26.55
72330;BME280;69154;52.076;5.110;2023-04-27T00:44:25;102196.05;;;5.83;28.24
72330;BME280;69154;52.076;5.110;2023-04-27T00:46:45;102193.87;;;6.04;28.27
72330;BME280;69154;52.076;5.110;2023-04-27T00:49:11;102193.32;;;6.39;27.74
72330;BME280;69154;52.076;5.110;2023-04-27T00:51:37;102192.33;;;6.68;28.50
72330;BME280;69154;52.076;5.110;2023-04-27T00:54:02;102188.75;;;5.35;28.90
72330;BME280;69154;52.076;5.110;2023-04-27T00:56:27;102185.59;;;4.63;29.94
72330;BME280;69154;52.076;5.110;2023-04-27T00:58:53;102182.69;;;4.01;31.21
72330;BME280;69154;52.076;5.110;2023-04-27T01:01:23;102182.52;;;3.16;31.72
72330;BME280;69154;52.076;5.110;2023-04-27T01:03:43;102179.76;;;2.91;32.16
72330;BME280;69154;52.076;5.110;2023-04-27T01:06:09;102182.55;;;1.47;32.95
72330;BME280;69154;52.076;5.110;2023-04-27T01:08:34;102178.94;;;2.69;32.54
72330;BME280;69154;52.076;5.110;2023-04-27T01:10:59;102180.48;;;2.43;32.47
72330;BME280;69154;52.076;5.110;2023-04-27T01:13:27;102184.12;;;3.07;32.13
72330;BME280;69154;52.076;5.110;2023-04-27T01:15:52;102188.85;;;2.91;31.86
72330;BME280;69154;52.076;5.110;2023-04-27T01:18:16;102189.88;;;2.28;32.33
72330;BME280;69154;52.076;5.110;2023-04-27T01:20:41;102194.67;;;1.88;32.89
72330;BME280;69154;52.076;5.110;2023-04-27T01:23:07;102193.38;;;2.55;32.07
72330;BME280;69154;52.076;5.110;2023-04-27T01:25:32;102195.09;;;2.95;31.79
72330;BME280;69154;52.076;5.110;2023-04-27T01:27:57;102190.78;;;3.45;31.54
72330;BME280;69154;52.076;5.110;2023-04-27T01:30:23;102189.54;;;2.23;32.38
72330;BME280;69154;52.076;5.110;2023-04-27T01:32:48;102186.05;;;2.57;32.75
72330;BME280;69154;52.076;5.110;2023-04-27T01:35:14;102180.19;;;0.84;34.29
72330;BME280;69154;52.076;5.110;2023-04-27T01:37:39;102175.79;;;2.02;34.09
72330;BME280;69154;52.076;5.110;2023-04-27T01:40:06;102172.03;;;1.31;33.86
72330;BME280;69154;52.076;5.110;2023-04-27T01:42:29;102169.51;;;1.23;33.71
72330;BME280;69154;52.076;5.110;2023-04-27T01:44:55;102170.37;;;2.91;32.68
72330;BME280;69154;52.076;5.110;2023-04-27T01:47:20;102171.89;;;3.26;31.63
72330;BME280;69154;52.076;5.110;2023-04-27T01:49:46;102171.82;;;2.44;32.06
72330;BME280;69154;52.076;5.110;2023-04-27T01:52:11;102167.55;;;2.65;31.67
72330;BME280;69154;52.076;5.110;2023-04-27T01:54:36;102167.89;;;2.50;32.50
72330;BME280;69154;52.076;5.110;2023-04-27T01:57:02;102170.28;;;2.31;31.51
72330;BME280;69154;52.076;5.110;2023-04-27T01:59:27;102168.92;;;2.61;32.11
72330;BME280;69154;52.076;5.110;2023-04-27T02:01:57;102170.28;;;2.07;32.63
72330;BME280;69154;52.076;5.110;2023-04-27T02:04:18;102171.69;;;1.16;33.30
72330;BME280;69154;52.076;5.110;2023-04-27T02:06:43;102175.17;;;0.73;34.34
72330;BME280;69154;52.076;5.110;2023-04-27T02:09:09;102175.32;;;0.99;33.71
72330;BME280;69154;52.076;5.110;2023-04-27T02:11:34;102174.84;;;1.56;34.10
72330;BME280;69154;52.076;5.110;2023-04-27T02:14:00;102172.73;;;0.35;34.61
72330;BME280;69154;52.076;5.110;2023-04-27T02:16:25;102175.24;;;2.18;33.82
72330;BME280;69154;52.076;5.110;2023-04-27T02:18:51;102173.11;;;1.38;34.26
72330;BME280;69154;52.076;5.110;2023-04-27T02:21:16;102167.83;;;1.39;33.67
72330;BME280;69154;52.076;5.110;2023-04-27T02:23:41;102167.18;;;1.34;33.74
72330;BME280;69154;52.076;5.110;2023-04-27T02:26:06;102168.96;;;1.94;32.89
72330;BME280;69154;52.076;5.110;2023-04-27T02:28:32;102165.63;;;1.76;33.35
72330;BME280;69154;52.076;5.110;2023-04-27T02:30:57;102165.62;;;2.58;33.08
72330;BME280;69154;52.076;5.110;2023-04-27T02:33:22;102162.13;;;3.33;31.57
72330;BME280;69154;52.076;5.110;2023-04-27T02:35:48;102159.16;;;3.99;30.50
72330;BME280;69154;52.076;5.110;2023-04-27T02:38:14;102156.38;;;3.39;29.91
72330;BME280;69154;52.076;5.110;2023-04-27T02:40:39;102155.80;;;4.36;29.95
72330;BME280;69154;52.076;5.110;2023-04-27T02:43:05;102157.74;;;4.09;29.54
72330;BME280;69154;52.076;5.110;2023-04-27T02:45:30;102155.76;;;4.01;29.05
72330;BME280;69154;52.076;5.110;2023-04-27T02:47:56;102151.63;;;4.28;28.95
72330;BME280;69154;52.076;5.110;2023-04-27T02:50:26;102150.64;;;4.46;28.92
72330;BME280;69154;52.076;5.110;2023-04-27T02:52:46;102152.80;;;5.02;28.51
72330;BME280;69154;52.076;5.110;2023-04-27T02:55:12;102157.47;;;4.42;27.94
72330;BME280;69154;52.076;5.110;2023-04-27T02:57:38;102155.67;;;3.27;28.99
72330;BME280;69154;52.076;5.110;2023-04-27T03:00:03;102156.97;;;3.01;28.95
72330;BME280;69154;52.076;5.110;2023-04-27T03:02:28;102155.69;;;2.79;29.53
72330;BME280;69154;52.076;5.110;2023-04-27T03:04:54;102157.37;;;3.36;29.34
72330;BME280;69154;52.076;5.110;2023-04-27T03:07:19;102161.58;;;3.38;29.17
72330;BME280;69154;52.076;5.110;2023-04-27T03:09:44;102158.97;;;2.18;30.19
72330;BME280;69154;52.076;5.110;2023-04-27T03:12:09;102162.34;;;2.45;29.80
72330;BME280;69154;52.076;5.110;2023-04-27T03:14:35;102162.19;;;2.49;30.03
72330;BME280;69154;52.076;5.110;2023-04-27T03:17:00;102162.64;;;1.93;30.56
72330;BME280;69154;52.076;5.110;2023-04-27T03:19:26;102166.36;;;2.71;30.17
72330;BME280;69154;52.076;5.110;2023-04-27T03:21:52;102166.15;;;2.23;30.94
72330;BME280;69154;52.076;5.110;2023-04-27T03:24:16;102163.42;;;2.48;30.56
72330;BME280;69154;52.076;5.110;2023-04-27T03:26:42;102164.63;;;3.96;29.56
72330;BME280;69154;52.076;5.110;2023-04-27T03:29:07;102167.93;;;3.20;29.46
72330;BME280;69154;52.076;5.110;2023-04-27T03:31:33;102164.83;;;3.73;29.38
72330;BME280;69154;52.076;5.110;2023-04-27T03:34:03;102162.59;;;2.91;29.63
72330;BME280;69154;52.076;5.110;2023-04-27T03:36:24;102163.31;;;2.72;29.46
72330;BME280;69154;52.076;5.110;2023-04-27T03:38:49;102164.63;;;3.30;29.48
72330;BME280;69154;52.076;5.110;2023-04-27T03:41:15;102164.53;;;2.99;29.36
72330;BME280;69154;52.076;5.110;2023-04-27T03:43:40;102166.78;;;3.52;29.55
72330;BME280;69154;52.076;5.110;2023-04-27T03:46:06;102165.45;;;2.84;29.40
72330;BME280;69154;52.076;5.110;2023-04-27T03:48:32;102164.54;;;4.54;28.67
72330;BME280;69154;52.076;5.110;2023-04-27T03:50:59;102162.24;;;2.63;30.48
72330;BME280;69154;52.076;5.110;2023-04-27T03:53:23;102160.74;;;1.50;31.28
72330;BME280;69154;52.076;5.110;2023-04-27T03:55:49;102161.82;;;2.50;31.09
72330;BME280;69154;52.076;5.110;2023-04-27T03:58:14;102160.82;;;2.59;30.70
72330;BME280;69154;52.076;5.110;2023-04-27T04:00:39;102165.14;;;2.72;30.48
72330;BME280;69154;52.076;5.110;2023-04-27T04:03:05;102167.64;;;2.50;29.80
72330;BME280;69154;52.076;5.110;2023-04-27T04:05:30;102172.19;;;4.85;28.84
72330;BME280;69154;52.076;5.110;2023-04-27T04:07:56;102173.28;;;5.05;28.51
72330;BME280;69154;52.076;5.110;2023-04-27T04:10:21;102175.86;;;4.43;29.45
72330;BME280;69154;52.076;5.110;2023-04-27T04:12:46;102173.48;;;3.62;29.29
72330;BME280;69154;52.076;5.110;2023-04-27T04:15:12;102176.24;;;3.05;29.40
72330;BME280;69154;52.076;5.110;2023-04-27T04:17:38;102180.26;;;4.42;28.84
72330;BME280;69154;52.076;5.110;2023-04-27T04:20:04;102184.73;;;3.95;29.23
72330;BME280;69154;52.076;5.110;2023-04-27T04:22:29;102187.77;;;4.28;30.02
72330;BME280;69154;52.076;5.110;2023-04-27T04:24:54;102187.12;;;4.30;30.33
72330;BME280;69154;52.076;5.110;2023-04-27T04:27:19;102193.57;;;4.30;29.24
72330;BME280;69154;52.076;5.110;2023-04-27T04:29:45;102195.22;;;4.62;29.74
72330;BME280;69154;52.076;5.110;2023-04-27T04:32:10;102196.28;;;2.95;30.40
72330;BME280;69154;52.076;5.110;2023-04-27T04:34:36;102199.99;;;4.36;30.03
72330;BME280;69154;52.076;5.110;2023-04-27T04:37:07;102199.26;;;4.15;29.79
72330;BME280;69154;52.076;5.110;2023-04-27T04:39:29;102196.73;;;3.42;30.76
72330;BME280;69154;52.076;5.110;2023-04-27T04:41:53;102198.11;;;4.78;29.45
72330;BME280;69154;52.076;5.110;2023-04-27T04:44:18;102202.03;;;4.16;29.58
72330;BME280;69154;52.076;5.110;2023-04-27T04:46:43;102204.23;;;3.57;29.74
72330;BME280;69154;52.076;5.110;2023-04-27T04:49:09;102203.07;;;2.38;30.26
72330;BME280;69154;52.076;5.110;2023-04-27T04:51:35;102199.88;;;2.80;30.34
72330;BME280;69154;52.076;5.110;2023-04-27T04:54:00;102202.91;;;2.47;30.38
72330;BME280;69154;52.076;5.110;2023-04-27T04:56:25;102203.33;;;2.59;30.03
72330;BME280;69154;52.076;5.110;2023-04-27T04:58:52;102201.90;;;3.74;29.96
72330;BME280;69154;52.076;5.110;2023-04-27T05:01:17;102202.58;;;3.03;30.46
72330;BME280;69154;52.076;5.110;2023-04-27T05:03:42;102205.09;;;3.87;29.38
72330;BME280;69154;52.076;5.110;2023-04-27T05:06:08;102198.26;;;2.72;30.09
72330;BME280;69154;52.076;5.110;2023-04-27T05:08:34;102200.25;;;3.05;30.15
72330;BME280;69154;52.076;5.110;2023-04-27T05:10:59;102200.71;;;3.94;29.25
72330;BME280;69154;52.076;5.110;2023-04-27T05:13:25;102199.75;;;2.95;29.90
72330;BME280;69154;52.076;5.110;2023-04-27T05:15:51;102203.07;;;4.18;29.48
72330;BME280;69154;52.076;5.110;2023-04-27T05:18:16;102210.42;;;3.54;29.90
72330;BME280;69154;52.076;5.110;2023-04-27T05:20:42;102215.05;;;4.06;29.98
72330;BME280;69154;52.076;5.110;2023-04-27T05:23:12;102223.69;;;5.16;28.17
72330;BME280;69154;52.076;5.110;2023-04-27T05:25:34;102222.66;;;5.43;29.03
72330;BME280;69154;52.076;5.110;2023-04-27T05:27:59;102222.12;;;5.06;28.31
72330;BME280;69154;52.076;5.110;2023-04-27T05:30:24;102222.05;;;6.03;27.52
72330;BME280;69154;52.076;5.110;2023-04-27T05:32:50;102224.93;;;5.23;28.21
72330;BME280;69154;52.076;5.110;2023-04-27T05:35:15;102221.04;;;5.74;27.19
72330;BME280;69154;52.076;5.110;2023-04-27T05:37:41;102224.72;;;3.75;29.42
72330;BME280;69154;52.076;5.110;2023-04-27T05:40:07;102221.90;;;4.03;28.79
72330;BME280;69154;52.076;5.110;2023-04-27T05:42:32;102217.91;;;6.66;27.60
72330;BME280;69154;52.076;5.110;2023-04-27T05:44:57;102214.31;;;6.49;26.61
72330;BME280;69154;52.076;5.110;2023-04-27T05:47:22;102211.61;;;6.63;26.64
72330;BME280;69154;52.076;5.110;2023-04-27T05:49:49;102214.43;;;8.86;24.70
72330;BME280;69154;52.076;5.110;2023-04-27T05:52:13;102211.27;;;9.87;23.23
72330;BME280;69154;52.076;5.110;2023-04-27T05:54:38;102212.60;;;9.73;22.89
72330;BME280;69154;52.076;5.110;2023-04-27T05:57:04;102210.18;;;9.46;23.76
72330;BME280;69154;52.076;5.110;2023-04-27T05:59:29;102214.22;;;9.78;22.34
72330;BME280;69154;52.076;5.110;2023-04-27T06:02:00;102210.62;;;8.30;24.47
72330;BME280;69154;52.076;5.110;2023-04-27T06:04:20;102216.80;;;7.72;24.84
72330;BME280;69154;52.076;5.110;2023-04-27T06:06:45;102213.08;;;7.76;24.37
72330;BME280;69154;52.076;5.110;2023-04-27T06:09:15;102210.44;;;8.31;24.58
72330;BME280;69154;52.076;5.110;2023-04-27T06:11:35;102209.28;;;9.45;24.42
72330;BME280;69154;52.076;5.110;2023-04-27T06:14:00;102212.13;;;7.97;24.03
72330;BME280;69154;52.076;5.110;2023-04-27T06:16:26;102214.27;;;8.52;24.28
72330;BME280;69154;52.076;5.110;2023-04-27T06:18:52;102214.44;;;5.20;26.79
72330;BME280;69154;52.076;5.110;2023-04-27T06:21:16;102212.25;;;5.86;26.55
72330;BME280;69154;52.076;5.110;2023-04-27T06:23:42;102214.87;;;6.22;26.32
72330;BME280;69154;52.076;5.110;2023-04-27T06:26:07;102217.87;;;5.46;28.18
72330;BME280;69154;52.076;5.110;2023-04-27T06:28:32;102222.81;;;6.07;27.32
72330;BME280;69154;52.076;5.110;2023-04-27T06:30:58;102224.10;;;6.01;26.83
72330;BME280;69154;52.076;5.110;2023-04-27T06:33:23;102220.29;;;5.76;27.43
72330;BME280;69154;52.076;5.110;2023-04-27T06:35:49;102219.41;;;4.83;29.40
72330;BME280;69154;52.076;5.110;2023-04-27T06:38:14;102220.70;;;5.99;27.58
72330;BME280;69154;52.076;5.110;2023-04-27T06:41:01;102218.40;;;5.56;27.33
72330;BME280;69154;52.076;5.110;2023-04-27T06:45:05;102219.65;;;5.58;27.12
72330;BME280;69154;52.076;5.110;2023-04-27T06:46:06;102220.91;;;6.31;27.07
72330;BME280;69154;52.076;5.110;2023-04-27T06:48:22;102219.02;;;4.84;26.62
72330;BME280;69154;52.076;5.110;2023-04-27T06:51:12;102217.41;;;5.42;27.05
72330;BME280;69154;52.076;5.110;2023-04-27T06:55:10;102215.77;;;6.19;26.63
72330;BME280;69154;52.076;5.110;2023-04-27T06:55:32;102216.84;;;7.79;25.50
72330;BME280;69154;52.076;5.110;2023-04-27T06:57:58;102214.32;;;8.75;25.76
72330;BME280;69154;52.076;5.110;2023-04-27T07:00:24;102213.10;;;6.79;25.85
72330;BME280;69154;52.076;5.110;2023-04-27T07:02:54;102213.85;;;6.51;25.75
72330;BME280;69154;52.076;5.110;2023-04-27T07:05:14;102216.91;;;6.27;26.40
72330;BME280;69154;52.076;5.110;2023-04-27T07:07:39;102219.66;;;7.39;26.14
72330;BME280;69154;52.076;5.110;2023-04-27T07:10:06;102223.60;;;7.25;25.78
72330;BME280;69154;52.076;5.110;2023-04-27T07:12:30;102231.01;;;5.97;27.82
72330;BME280;69154;52.076;5.110;2023-04-27T07:14:55;102228.23;;;5.83;27.25
72330;BME280;69154;52.076;5.110;2023-04-27T07:17:21;102230.68;;;6.17;27.85
72330;BME280;69154;52.076;5.110;2023-04-27T07:19:46;102227.53;;;7.03;27.78
72330;BME280;69154;52.076;5.110;2023-04-27T07:22:22;102227.60;;;6.52;28.01
72330;BME280;69154;52.076;5.110;2023-04-27T07:25:08;102226.90;;;9.00;24.17
72330;BME280;69154;52.076;5.110;2023-04-27T07:27:03;102224.37;;;10.14;22.68
72330;BME280;69154;52.076;5.110;2023-04-27T07:30:32;102220.07;;;9.58;22.10
72330;BME280;69154;52.076;5.110;2023-04-27T07:32:08;102220.33;;;9.93;22.67
72330;BME280;69154;52.076;5.110;2023-04-27T07:35:23;102220.10;;;8.40;23.78
72330;BME280;69154;52.076;5.110;2023-04-27T07:37:17;102210.44;;;8.21;23.24
72330;BME280;69154;52.076;5.110;2023-04-27T07:39:20;102209.49;;;8.53;23.59
72330;BME280;69154;52.076;5.110;2023-04-27T07:42:21;102212.57;;;7.21;25.62
72330;BME280;69154;52.076;5.110;2023-04-27T07:44:05;102213.45;;;7.34;24.60
72330;BME280;69154;52.076;5.110;2023-04-27T07:47:07;102218.50;;;9.12;23.91
72330;BME280;69154;52.076;5.110;2023-04-27T07:50:10;102223.69;;;9.19;23.26
72330;BME280;69154;52.076;5.110;2023-04-27T07:52:40;102224.87;;;9.85;23.67
72330;BME280;69154;52.076;5.110;2023-04-27T07:55:23;102222.08;;;9.86;22.27
72330;BME280;69154;52.076;5.110;2023-04-27T07:57:18;102224.96;;;11.20;21.41
72330;BME280;69154;52.076;5.110;2023-04-27T08:00:09;102228.35;;;8.44;21.56
72330;BME280;69154;52.076;5.110;2023-04-27T08:02:03;102228.01;;;9.50;21.30
72330;BME280;69154;52.076;5.110;2023-04-27T08:04:29;102219.37;;;8.09;22.54
72330;BME280;69154;52.076;5.110;2023-04-27T08:06:49;102224.19;;;11.53;20.66
72330;BME280;69154;52.076;5.110;2023-04-27T08:09:15;102223.17;;;11.45;21.06
72330;BME280;69154;52.076;5.110;2023-04-27T08:11:40;102228.63;;;12.28;20.28
72330;BME280;69154;52.076;5.110;2023-04-27T08:14:05;102230.17;;;10.97;20.20
72330;BME280;69154;52.076;5.110;2023-04-27T08:16:30;102228.12;;;10.63;19.83
72330;BME280;69154;52.076;5.110;2023-04-27T08:18:56;102228.83;;;10.20;21.23
72330;BME280;69154;52.076;5.110;2023-04-27T08:21:22;102226.53;;;10.60;19.90
72330;BME280;69154;52.076;5.110;2023-04-27T08:23:46;102222.20;;;9.65;21.31
72330;BME280;69154;52.076;5.110;2023-04-27T08:26:15;102221.38;;;10.42;21.26
72330;BME280;69154;52.076;5.110;2023-04-27T08:28:36;102217.05;;;8.25;21.20
72330;BME280;69154;52.076;5.110;2023-04-27T08:31:02;102213.06;;;7.42;21.67
72330;BME280;69154;52.076;5.110;2023-04-27T08:33:27;102210.26;;;6.35;22.73
72330;BME280;69154;52.076;5.110;2023-04-27T08:36:26;102210.74;;;5.90;23.74
72330;BME280;69154;52.076;5.110;2023-04-27T08:39:08;102216.70;;;7.31;22.90
72330;BME280;69154;52.076;5.110;2023-04-27T08:41:08;102217.74;;;9.75;20.84
72330;BME280;69154;52.076;5.110;2023-04-27T08:43:09;102217.22;;;10.40;20.47
72330;BME280;69154;52.076;5.110;2023-04-27T08:46:17;102207.50;;;9.54;21.55
72330;BME280;69154;52.076;5.110;2023-04-27T08:50:16;102213.04;;;10.77;20.83
72330;BME280;69154;52.076;5.110;2023-04-27T08:52:10;102212.48;;;8.64;21.35
72330;BME280;69154;52.076;5.110;2023-04-27T08:54:09;102209.11;;;8.05;22.59
72330;BME280;69154;52.076;5.110;2023-04-27T08:56:29;102218.89;;;4.09;26.51
72330;BME280;69154;52.076;5.110;2023-04-27T08:59:13;102215.18;;;6.60;24.38
72330;BME280;69154;52.076;5.110;2023-04-27T09:03:27;102217.01;;;5.98;25.21
72330;BME280;69154;52.076;5.110;2023-04-27T09:05:00;102212.37;;;8.52;23.67
72330;BME280;69154;52.076;5.110;2023-04-27T09:07:09;102211.25;;;10.64;20.90
72330;BME280;69154;52.076;5.110;2023-04-27T09:11:08;102214.18;;;9.95;21.07
72330;BME280;69154;52.076;5.110;2023-04-27T09:14:43;102209.58;;;10.79;20.05
72330;BME280;69154;52.076;5.110;2023-04-27T09:17:16;102210.44;;;11.57;20.54
72330;BME280;69154;52.076;5.110;2023-04-27T09:19:22;102205.50;;;6.16;22.75
72330;BME280;69154;52.076;5.110;2023-04-27T09:23:26;102205.67;;;6.85;23.88
72330;BME280;69154;52.076;5.110;2023-04-27T09:25:07;102209.10;;;10.33;22.91
72330;BME280;69154;52.076;5.110;2023-04-27T09:27:08;102200.96;;;8.35;21.10
72330;BME280;69154;52.076;5.110;2023-04-27T09:30:26;102203.80;;;9.98;20.53
72330;BME280;69154;52.076;5.110;2023-04-27T09:33:15;102199.83;;;11.19;20.55
72330;BME280;69154;52.076;5.110;2023-04-27T09:34:37;102202.21;;;10.38;20.04
72330;BME280;69154;52.076;5.110;2023-04-27T09:37:01;102198.82;;;12.35;18.83
72330;BME280;69154;52.076;5.110;2023-04-27T09:39:27;102196.68;;;13.14;18.18
72330;BME280;69154;52.076;5.110;2023-04-27T09:41:51;102199.75;;;12.26;18.58
72330;BME280;69154;52.076;5.110;2023-04-27T09:44:16;102190.68;;;13.92;18.07
72330;BME280;69154;52.076;5.110;2023-04-27T09:46:43;102194.66;;;14.13;16.80
72330;BME280;69154;52.076;5.110;2023-04-27T09:49:08;102190.03;;;13.36;16.67
72330;BME280;69154;52.076;5.110;2023-04-27T09:51:33;102194.13;;;14.62;16.01
72330;BME280;69154;52.076;5.110;2023-04-27T09:53:59;102191.84;;;18.17;15.67
72330;BME280;69154;52.076;5.110;2023-04-27T09:56:30;102192.98;;;13.50;15.91
72330;BME280;69154;52.076;5.110;2023-04-27T09:59:00;102197.90;;;14.76;15.41
72330;BME280;69154;52.076;5.110;2023-04-27T10:01:20;102192.97;;;16.89;15.23
72330;BME280;69154;52.076;5.110;2023-04-27T10:03:49;102192.73;;;18.12;14.42
72330;BME280;69154;52.076;5.110;2023-04-27T10:06:37;102191.24;;;20.52;12.80
72330;BME280;69154;52.076;5.110;2023-04-27T10:08:29;102184.19;;;18.91;13.86
72330;BME280;69154;52.076;5.110;2023-04-27T10:10:54;102184.84;;;16.24;14.73
72330;BME280;69154;52.076;5.110;2023-04-27T10:13:21;102181.66;;;17.41;15.59
72330;BME280;69154;52.076;5.110;2023-04-27T10:15:44;102185.97;;;16.25;15.56
72330;BME280;69154;52.076;5.110;2023-04-27T10:18:10;102191.15;;;14.50;14.51
72330;BME280;69154;52.076;5.110;2023-04-27T10:20:36;102183.39;;;9.74;17.96
72330;BME280;69154;52.076;5.110;2023-04-27T10:23:01;102186.16;;;13.71;16.19
72330;BME280;69154;52.076;5.110;2023-04-27T10:25:27;102183.59;;;12.88;16.67
72330;BME280;69154;52.076;5.110;2023-04-27T10:27:52;102186.93;;;15.32;15.08
72330;BME280;69154;52.076;5.110;2023-04-27T10:30:18;102185.07;;;17.46;14.46
72330;BME280;69154;52.076;5.110;2023-04-27T10:32:49;102182.50;;;18.12;14.23
72330;BME280;69154;52.076;5.110;2023-04-27T10:35:07;102184.98;;;17.44;13.92
72330;BME280;69154;52.076;5.110;2023-04-27T10:37:38;102185.34;;;14.95;14.99
72330;BME280;69154;52.076;5.110;2023-04-27T10:40:05;102181.85;;;16.69;13.67
72330;BME280;69154;52.076;5.110;2023-04-27T10:42:26;102180.12;;;19.69;13.57
72330;BME280;69154;52.076;5.110;2023-04-27T10:44:53;102180.88;;;17.60;11.81
72330;BME280;69154;52.076;5.110;2023-04-27T10:47:14;102179.33;;;18.39;12.16
72330;BME280;69154;52.076;5.110;2023-04-27T10:49:38;102177.45;;;15.36;13.46
72330;BME280;69154;52.076;5.110;2023-04-27T10:52:04;102172.01;;;18.80;14.37
72330;BME280;69154;52.076;5.110;2023-04-27T10:54:30;102174.63;;;18.45;13.74
72330;BME280;69154;52.076;5.110;2023-04-27T10:57:01;102175.91;;;20.92;12.75
72330;BME280;69154;52.076;5.110;2023-04-27T10:59:21;102176.60;;;19.49;13.02
72330;BME280;69154;52.076;5.110;2023-04-27T11:01:47;102167.89;;;18.21;13.59
72330;BME280;69154;52.076;5.110;2023-04-27T11:04:12;102164.92;;;18.47;14.11
72330;BME280;69154;52.076;5.110;2023-04-27T11:06:42;102159.34;;;18.58;13.34
72330;BME280;69154;52.076;5.110;2023-04-27T11:09:04;102158.08;;;20.79;14.03
72330;BME280;69154;52.076;5.110;2023-04-27T11:11:29;102152.55;;;20.08;11.70
72330;BME280;69154;52.076;5.110;2023-04-27T11:13:55;102147.32;;;19.16;13.42
72330;BME280;69154;52.076;5.110;2023-04-27T11:16:21;102143.28;;;21.09;12.57
72330;BME280;69154;52.076;5.110;2023-04-27T11:18:46;102133.10;;;21.79;12.57
72330;BME280;69154;52.076;5.110;2023-04-27T11:21:14;102127.33;;;20.34;11.43
72330;BME280;69154;52.076;5.110;2023-04-27T11:23:39;102130.58;;;19.94;11.79
72330;BME280;69154;52.076;5.110;2023-04-27T11:26:12;102126.49;;;20.30;9.69
72330;BME280;69154;52.076;5.110;2023-04-27T11:28:29;102127.74;;;20.83;11.23
72330;BME280;69154;52.076;5.110;2023-04-27T11:30:56;102121.87;;;19.80;10.93
72330;BME280;69154;52.076;5.110;2023-04-27T11:33:21;102114.83;;;17.57;12.65
72330;BME280;69154;52.076;5.110;2023-04-27T11:35:47;102120.43;;;10.05;17.02
72330;BME280;69154;52.076;5.110;2023-04-27T11:38:16;102120.08;;;10.67;17.66
72330;BME280;69154;52.076;5.110;2023-04-27T11:40:37;102114.41;;;13.79;16.85
72330;BME280;69154;52.076;5.110;2023-04-27T11:43:02;102113.09;;;20.39;14.08
72330;BME280;69154;52.076;5.110;2023-04-27T11:45:29;102101.64;;;21.51;13.27
72330;BME280;69154;52.076;5.110;2023-04-27T11:47:57;102109.17;;;20.47;12.52
72330;BME280;69154;52.076;5.110;2023-04-27T11:50:23;102114.99;;;19.21;11.28
72330;BME280;69154;52.076;5.110;2023-04-27T11:52:47;102106.58;;;22.18;10.59
72330;BME280;69154;52.076;5.110;2023-04-27T11:55:11;102099.43;;;17.78;13.30
72330;BME280;69154;52.076;5.110;2023-04-27T11:57:37;102097.10;;;17.15;12.88
72330;BME280;69154;52.076;5.110;2023-04-27T12:00:05;102102.70;;;19.21;12.41
72330;BME280;69154;52.076;5.110;2023-04-27T12:02:29;102094.60;;;21.39;11.72
72330;BME280;69154;52.076;5.110;2023-04-27T12:04:54;102092.35;;;23.19;11.22
72330;BME280;69154;52.076;5.110;2023-04-27T12:07:20;102098.11;;;20.05;12.03
72330;BME280;69154;52.076;5.110;2023-04-27T12:09:46;102099.18;;;21.32;11.81
72330;BME280;69154;52.076;5.110;2023-04-27T12:12:12;102095.18;;;23.53;10.48
72330;BME280;69154;52.076;5.110;2023-04-27T12:14:37;102097.53;;;17.70;11.45
72330;BME280;69154;52.076;5.110;2023-04-27T12:17:02;102091.46;;;20.85;10.63
72330;BME280;69154;52.076;5.110;2023-04-27T12:19:28;102098.36;;;20.02;11.59
72330;BME280;69154;52.076;5.110;2023-04-27T12:21:54;102098.66;;;18.98;11.59
72330;BME280;69154;52.076;5.110;2023-04-27T12:24:19;102089.69;;;17.31;13.26
72330;BME280;69154;52.076;5.110;2023-04-27T12:26:45;102089.67;;;19.47;12.72
72330;BME280;69154;52.076;5.110;2023-04-27T12:29:10;102086.40;;;20.08;11.72
72330;BME280;69154;52.076;5.110;2023-04-27T12:31:36;102080.92;;;19.43;11.75
72330;BME280;69154;52.076;5.110;2023-04-27T12:34:02;102076.58;;;23.58;10.91
72330;BME280;69154;52.076;5.110;2023-04-27T12:36:29;102078.97;;;20.19;10.52
72330;BME280;69154;52.076;5.110;2023-04-27T12:38:57;102076.57;;;19.19;12.38
72330;BME280;69154;52.076;5.110;2023-04-27T12:41:19;102072.47;;;19.91;12.00
72330;BME280;69154;52.076;5.110;2023-04-27T12:43:45;102075.69;;;18.76;10.83
72330;BME280;69154;52.076;5.110;2023-04-27T12:46:10;102068.66;;;20.12;10.78
72330;BME280;69154;52.076;5.110;2023-04-27T12:48:36;102070.36;;;18.17;11.60
72330;BME280;69154;52.076;5.110;2023-04-27T12:51:02;102066.49;;;18.22;11.97
72330;BME280;69154;52.076;5.110;2023-04-27T12:53:28;102063.75;;;21.21;11.67